Date,TemperatureHighF,TemperatureAvgF,TemperatureLowF,DewpointHighF,DewpointAvgF,DewpointLowF,HumidityHigh,HumidityAvg,HumidityLow,PressureMaxIn,PressureMinIn,WindSpeedMaxMPH,WindSpeedAvgMPH,GustSpeedMaxMPH,PrecipitationSumIn
2013-1-1,81.3,64.5,48.9,63.5,56.3,48.7,99,79,44,29.93,29.74,14,2,21,0.00
2013-1-2,85.6,68.4,53.2,68.2,60.7,52.7,99,80,45,29.78,29.66,11,2,14,0.00
2013-1-3,81.7,65.9,59.4,70.0,63.2,-3.3,99,92,60,29.88,29.73,14,2,18,0.02
2013-1-4,62.6,59.4,56.5,60.2,58.4,56.0,99,97,88,29.98,29.83,14,5,16,0.02
2013-1-5,79.7,65.9,56.5,64.0,59.0,53.7,99,80,57,30.00,29.88,12,5,20,0.00
2013-1-6,87.8,70.7,63.1,70.0,66.0,61.8,99,87,53,29.91,29.75,10,2,13,0.21
2013-1-7,71.2,65.1,59.5,67.7,60.1,54.1,99,85,68,29.92,29.81,14,5,21,0.00
2013-1-8,84.6,72.5,63.0,70.5,66.6,62.1,99,83,60,29.93,29.82,9,3,14,0.00
2013-1-9,89.4,75.9,68.9,72.6,69.6,64.5,99,83,48,30.00,29.88,13,4,17,0.01
2013-1-10,86.0,72.7,63.5,73.6,65.4,59.4,99,81,45,30.01,29.90,14,4,21,0.01
2013-1-11,84.4,71.1,60.4,75.8,65.9,60.2,99,85,57,29.97,29.84,17,3,22,0.00
2013-1-12,88.2,71.4,57.2,73.4,63.1,56.9,99,79,41,29.90,29.77,11,3,14,0.00
2013-1-13,87.3,71.7,58.3,68.2,63.5,57.8,99,79,43,29.87,29.75,11,2,16,0.00
2013-1-14,85.1,71.1,57.7,71.7,63.4,57.5,99,80,47,29.91,29.80,10,2,15,0.00
2013-1-15,85.8,75.1,67.5,65.7,63.7,58.7,94,73,44,29.86,29.74,11,3,14,0.00
2013-1-16,87.3,69.7,0.0,62.4,55.2,0.0,94,58,38,29.77,29.69,9,2,11,0.00
2013-1-17,83.3,64.3,53.6,69.4,58.2,44.6,99,82,58,29.82,29.66,21,6,29,15.37
2013-1-18,67.8,54.6,40.8,60.1,48.2,35.3,98,80,61,30.00,29.82,17,6,25,0.02
2013-1-19,75.2,66.3,56.5,63.4,58.5,53.7,92,78,62,29.98,29.83,14,5,19,0.00
2013-1-20,77.0,66.2,59.2,63.8,60.5,48.4,99,83,62,29.88,29.74,12,3,17,12.28
2013-1-21,79.7,66.4,61.2,66.2,61.0,56.2,97,84,60,29.80,29.69,98,2,99,0.01
2013-1-22,66.0,58.4,44.8,60.4,45.7,35.7,95,66,38,30.00,29.76,100,6,100,15.41
2013-1-23,74.7,56.0,41.7,47.0,36.5,16.5,98,60,15,30.09,29.98,10,2,13,0.00
2013-1-24,77.9,57.6,39.7,52.4,44.9,39.5,99,71,31,30.06,29.93,11,2,13,0.00
2013-1-25,82.2,61.1,45.7,59.9,48.4,42.5,99,72,29,30.04,29.88,8,1,12,0.00
2013-1-26,81.0,61.3,43.9,59.4,50.3,43.4,99,74,35,30.00,29.87,10,2,14,0.00
2013-1-27,81.5,62.0,49.3,58.0,53.0,49.0,99,78,41,30.03,29.92,14,2,16,15.43
2013-1-28,78.4,68.8,60.1,66.0,62.7,58.0,97,83,66,30.04,29.92,9,4,12,15.43
2013-1-29,86.2,80.0,74.7,69.0,64.8,63.2,75,62,50,29.96,29.79,15,6,19,0.00
2013-1-30,85.6,81.2,70.3,66.3,63.9,60.5,87,58,45,29.81,29.60,21,7,26,0.00
2013-1-31,70.5,60.0,45.5,67.7,43.4,14.2,99,63,19,29.95,29.60,27,6,33,0.07